sensor_id;sensor_type;location;lat;lon;timestamp;temperature;humidity
43227;DHT22;28839;52.404;9.808;2023-04-06T00:03:47;0.00;99.90
43227;DHT22;28839;52.404;9.808;2023-04-06T00:10:42;-0.10;99.90
43227;DHT22;28839;52.404;9.808;2023-04-06T00:17:36;-0.20;99.90
43227;DHT22;28839;52.404;9.808;2023-04-06T00:24:30;-0.10;99.90
43227;DHT22;28839;52.404;9.808;2023-04-06T00:31:25;-0.20;99.90
43227;DHT22;28839;52.404;9.808;2023-04-06T00:38:19;-0.20;99.90
43227;DHT22;28839;52.404;9.808;2023-04-06T00:45:13;-0.20;99.90
43227;DHT22;28839;52.404;9.808;2023-04-06T00:52:09;-0.10;99.90
43227;DHT22;28839;52.404;9.808;2023-04-06T00:59:03;-0.20;99.90
43227;DHT22;28839;52.404;9.808;2023-04-06T01:05:57;-0.20;99.90
43227;DHT22;28839;52.404;9.808;2023-04-06T01:12:53;-0.30;99.90
43227;DHT22;28839;52.404;9.808;2023-04-06T01:19:47;-0.40;99.90
43227;DHT22;28839;52.404;9.808;2023-04-06T01:26:43;-0.40;99.90
43227;DHT22;28839;52.404;9.808;2023-04-06T01:33:37;-0.40;99.90
43227;DHT22;28839;52.404;9.808;2023-04-06T01:40:31;-0.30;99.90
43227;DHT22;28839;52.404;9.808;2023-04-06T01:47:27;-0.40;99.90
43227;DHT22;28839;52.404;9.808;2023-04-06T01:54:20;-0.40;99.90
43227;DHT22;28839;52.404;9.808;2023-04-06T02:01:14;-0.40;99.90
43227;DHT22;28839;52.404;9.808;2023-04-06T02:08:10;-0.50;99.90
43227;DHT22;28839;52.404;9.808;2023-04-06T02:15:04;-0.60;99.90
43227;DHT22;28839;52.404;9.808;2023-04-06T02:21:58;-0.70;99.90
43227;DHT22;28839;52.404;9.808;2023-04-06T02:28:54;-0.60;99.90
43227;DHT22;28839;52.404;9.808;2023-04-06T02:35:48;-0.70;99.90
43227;DHT22;28839;52.404;9.808;2023-04-06T02:42:42;-0.60;99.90
43227;DHT22;28839;52.404;9.808;2023-04-06T02:49:37;-0.60;99.90
43227;DHT22;28839;52.404;9.808;2023-04-06T02:56:31;-0.60;99.90
43227;DHT22;28839;52.404;9.808;2023-04-06T03:03:25;-0.60;99.90
43227;DHT22;28839;52.404;9.808;2023-04-06T03:10:20;-0.80;99.90
43227;DHT22;28839;52.404;9.808;2023-04-06T03:17:14;-0.70;99.90
43227;DHT22;28839;52.404;9.808;2023-04-06T03:24:08;-0.70;99.90
43227;DHT22;28839;52.404;9.808;2023-04-06T03:31:03;-0.70;99.90
43227;DHT22;28839;52.404;9.808;2023-04-06T03:37:57;-0.70;99.90
43227;DHT22;28839;52.404;9.808;2023-04-06T03:44:51;-0.80;99.90
43227;DHT22;28839;52.404;9.808;2023-04-06T03:51:46;-0.80;99.90
43227;DHT22;28839;52.404;9.808;2023-04-06T03:58:40;-0.90;99.90
43227;DHT22;28839;52.404;9.808;2023-04-06T04:05:37;-0.90;99.90
43227;DHT22;28839;52.404;9.808;2023-04-06T04:12:32;-1.00;99.90
43227;DHT22;28839;52.404;9.808;2023-04-06T04:19:26;-1.00;99.90
43227;DHT22;28839;52.404;9.808;2023-04-06T04:26:20;-1.10;99.90
43227;DHT22;28839;52.404;9.808;2023-04-06T04:33:15;-1.00;99.90
43227;DHT22;28839;52.404;9.808;2023-04-06T04:40:10;-1.00;99.90
43227;DHT22;28839;52.404;9.808;2023-04-06T04:47:04;-1.10;99.90
43227;DHT22;28839;52.404;9.808;2023-04-06T04:53:59;-0.90;99.90
43227;DHT22;28839;52.404;9.808;2023-04-06T05:00:53;-0.90;99.90
43227;DHT22;28839;52.404;9.808;2023-04-06T05:07:47;-0.90;99.90
43227;DHT22;28839;52.404;9.808;2023-04-06T05:14:42;-0.80;99.90
43227;DHT22;28839;52.404;9.808;2023-04-06T05:21:36;-0.70;99.90
43227;DHT22;28839;52.404;9.808;2023-04-06T05:28:30;-0.70;99.90
43227;DHT22;28839;52.404;9.808;2023-04-06T05:35:25;-0.40;99.90
43227;DHT22;28839;52.404;9.808;2023-04-06T05:42:19;-0.20;99.90
43227;DHT22;28839;52.404;9.808;2023-04-06T05:49:13;0.10;99.90
43227;DHT22;28839;52.404;9.808;2023-04-06T05:56:09;0.30;99.90
43227;DHT22;28839;52.404;9.808;2023-04-06T06:03:03;0.70;99.90
43227;DHT22;28839;52.404;9.808;2023-04-06T06:09:58;1.30;99.90
43227;DHT22;28839;52.404;9.808;2023-04-06T06:16:53;2.50;99.90
43227;DHT22;28839;52.404;9.808;2023-04-06T06:23:47;3.70;99.90
43227;DHT22;28839;52.404;9.808;2023-04-06T06:30:42;4.00;99.90
43227;DHT22;28839;52.404;9.808;2023-04-06T06:37:38;4.80;99.90
43227;DHT22;28839;52.404;9.808;2023-04-06T06:44:31;5.30;99.90
43227;DHT22;28839;52.404;9.808;2023-04-06T06:51:25;6.30;99.90
43227;DHT22;28839;52.404;9.808;2023-04-06T06:58:21;6.20;99.90
43227;DHT22;28839;52.404;9.808;2023-04-06T07:05:15;6.70;99.90
43227;DHT22;28839;52.404;9.808;2023-04-06T07:12:09;7.10;99.90
43227;DHT22;28839;52.404;9.808;2023-04-06T07:19:04;7.00;99.90
43227;DHT22;28839;52.404;9.808;2023-04-06T07:25:58;6.60;99.90
43227;DHT22;28839;52.404;9.808;2023-04-06T07:32:52;7.10;99.90
43227;DHT22;28839;52.404;9.808;2023-04-06T07:39:49;7.10;99.90
43227;DHT22;28839;52.404;9.808;2023-04-06T07:46:43;7.70;99.90
43227;DHT22;28839;52.404;9.808;2023-04-06T07:53:37;7.30;99.90
43227;DHT22;28839;52.404;9.808;2023-04-06T08:00:32;7.60;99.90
43227;DHT22;28839;52.404;9.808;2023-04-06T08:07:26;8.10;99.90
43227;DHT22;28839;52.404;9.808;2023-04-06T08:14:20;8.60;99.90
43227;DHT22;28839;52.404;9.808;2023-04-06T08:21:15;8.60;99.90
43227;DHT22;28839;52.404;9.808;2023-04-06T08:28:09;8.70;99.90
43227;DHT22;28839;52.404;9.808;2023-04-06T08:35:04;9.30;99.90
43227;DHT22;28839;52.404;9.808;2023-04-06T08:42:00;10.00;99.90
43227;DHT22;28839;52.404;9.808;2023-04-06T08:48:55;9.60;99.90
43227;DHT22;28839;52.404;9.808;2023-04-06T08:55:50;9.60;99.90
43227;DHT22;28839;52.404;9.808;2023-04-06T09:02:46;9.60;99.90
43227;DHT22;28839;52.404;9.808;2023-04-06T09:09:40;10.20;99.90
43227;DHT22;28839;52.404;9.808;2023-04-06T09:16:40;10.20;99.90
43227;DHT22;28839;52.404;9.808;2023-04-06T09:23:36;10.00;99.90
43227;DHT22;28839;52.404;9.808;2023-04-06T09:30:30;10.90;99.90
43227;DHT22;28839;52.404;9.808;2023-04-06T09:37:28;11.00;99.90
43227;DHT22;28839;52.404;9.808;2023-04-06T09:44:23;11.10;98.90
43227;DHT22;28839;52.404;9.808;2023-04-06T09:51:18;10.90;98.90
43227;DHT22;28839;52.404;9.808;2023-04-06T09:58:13;11.40;98.50
43227;DHT22;28839;52.404;9.808;2023-04-06T10:05:19;11.00;97.80
43227;DHT22;28839;52.404;9.808;2023-04-06T10:12:15;12.00;98.10
43227;DHT22;28839;52.404;9.808;2023-04-06T10:19:13;11.80;97.60
43227;DHT22;28839;52.404;9.808;2023-04-06T10:26:13;11.90;95.70
43227;DHT22;28839;52.404;9.808;2023-04-06T10:33:15;12.40;95.40
43227;DHT22;28839;52.404;9.808;2023-04-06T10:40:18;12.70;94.50
43227;DHT22;28839;52.404;9.808;2023-04-06T10:47:17;12.50;93.90
43227;DHT22;28839;52.404;9.808;2023-04-06T10:54:12;12.60;92.20
43227;DHT22;28839;52.404;9.808;2023-04-06T11:01:06;12.60;91.20
43227;DHT22;28839;52.404;9.808;2023-04-06T11:08:01;12.60;90.60
43227;DHT22;28839;52.404;9.808;2023-04-06T11:14:56;12.40;89.50
43227;DHT22;28839;52.404;9.808;2023-04-06T11:21:54;12.70;91.00
43227;DHT22;28839;52.404;9.808;2023-04-06T11:28:50;12.70;90.60
43227;DHT22;28839;52.404;9.808;2023-04-06T11:35:44;12.30;86.20
43227;DHT22;28839;52.404;9.808;2023-04-06T11:42:38;12.60;86.20
43227;DHT22;28839;52.404;9.808;2023-04-06T11:49:37;12.70;86.20
43227;DHT22;28839;52.404;9.808;2023-04-06T11:56:31;12.50;86.30
43227;DHT22;28839;52.404;9.808;2023-04-06T12:03:25;12.60;87.00
43227;DHT22;28839;52.404;9.808;2023-04-06T12:10:20;12.60;86.70
43227;DHT22;28839;52.404;9.808;2023-04-06T12:17:14;12.60;87.50
43227;DHT22;28839;52.404;9.808;2023-04-06T12:24:08;12.80;88.60
43227;DHT22;28839;52.404;9.808;2023-04-06T12:31:04;12.90;85.80
43227;DHT22;28839;52.404;9.808;2023-04-06T12:37:58;12.60;86.50
43227;DHT22;28839;52.404;9.808;2023-04-06T12:44:52;12.70;86.90
43227;DHT22;28839;52.404;9.808;2023-04-06T12:51:47;12.60;85.70
43227;DHT22;28839;52.404;9.808;2023-04-06T12:58:41;12.90;89.60
43227;DHT22;28839;52.404;9.808;2023-04-06T13:05:35;13.00;87.90
43227;DHT22;28839;52.404;9.808;2023-04-06T13:12:30;12.80;87.20
43227;DHT22;28839;52.404;9.808;2023-04-06T13:19:24;13.00;88.70
43227;DHT22;28839;52.404;9.808;2023-04-06T13:26:19;12.90;90.20
43227;DHT22;28839;52.404;9.808;2023-04-06T13:33:15;13.20;87.30
43227;DHT22;28839;52.404;9.808;2023-04-06T13:40:09;13.10;86.90
43227;DHT22;28839;52.404;9.808;2023-04-06T13:47:04;13.10;87.70
43227;DHT22;28839;52.404;9.808;2023-04-06T13:53:59;13.20;87.30
43227;DHT22;28839;52.404;9.808;2023-04-06T14:00:53;12.80;87.20
43227;DHT22;28839;52.404;9.808;2023-04-06T14:07:47;12.90;88.60
43227;DHT22;28839;52.404;9.808;2023-04-06T14:14:42;12.90;89.30
43227;DHT22;28839;52.404;9.808;2023-04-06T14:21:36;13.40;88.50
43227;DHT22;28839;52.404;9.808;2023-04-06T14:28:30;13.10;86.30
43227;DHT22;28839;52.404;9.808;2023-04-06T14:35:25;13.10;85.20
43227;DHT22;28839;52.404;9.808;2023-04-06T14:42:20;13.20;87.00
43227;DHT22;28839;52.404;9.808;2023-04-06T14:49:14;13.30;84.40
43227;DHT22;28839;52.404;9.808;2023-04-06T14:56:09;13.20;83.30
43227;DHT22;28839;52.404;9.808;2023-04-06T15:03:03;13.30;83.80
43227;DHT22;28839;52.404;9.808;2023-04-06T15:09:57;13.40;83.00
43227;DHT22;28839;52.404;9.808;2023-04-06T15:16:52;13.50;82.40
43227;DHT22;28839;52.404;9.808;2023-04-06T15:23:46;13.40;83.40
43227;DHT22;28839;52.404;9.808;2023-04-06T15:30:40;13.40;84.80
43227;DHT22;28839;52.404;9.808;2023-04-06T15:37:35;13.30;84.40
43227;DHT22;28839;52.404;9.808;2023-04-06T15:44:29;13.30;82.40
43227;DHT22;28839;52.404;9.808;2023-04-06T15:51:23;13.20;83.60
43227;DHT22;28839;52.404;9.808;2023-04-06T15:58:19;13.20;83.30
43227;DHT22;28839;52.404;9.808;2023-04-06T16:05:12;13.20;83.90
43227;DHT22;28839;52.404;9.808;2023-04-06T16:12:06;13.10;84.60
43227;DHT22;28839;52.404;9.808;2023-04-06T16:19:02;13.10;85.30
43227;DHT22;28839;52.404;9.808;2023-04-06T16:25:56;13.10;84.70
43227;DHT22;28839;52.404;9.808;2023-04-06T16:32:50;13.00;84.00
43227;DHT22;28839;52.404;9.808;2023-04-06T16:39:45;12.90;83.70
43227;DHT22;28839;52.404;9.808;2023-04-06T16:46:39;12.80;84.90
43227;DHT22;28839;52.404;9.808;2023-04-06T16:53:33;12.70;85.20
43227;DHT22;28839;52.404;9.808;2023-04-06T17:00:28;12.50;84.90
43227;DHT22;28839;52.404;9.808;2023-04-06T17:07:22;12.50;85.50
43227;DHT22;28839;52.404;9.808;2023-04-06T17:14:18;12.30;86.20
43227;DHT22;28839;52.404;9.808;2023-04-06T17:21:13;12.20;88.20
43227;DHT22;28839;52.404;9.808;2023-04-06T17:28:08;11.90;90.10
43227;DHT22;28839;52.404;9.808;2023-04-06T17:35:02;11.70;90.60
43227;DHT22;28839;52.404;9.808;2023-04-06T17:41:57;11.60;90.70
43227;DHT22;28839;52.404;9.808;2023-04-06T17:48:51;11.40;91.10
43227;DHT22;28839;52.404;9.808;2023-04-06T17:55:45;11.20;91.80
43227;DHT22;28839;52.404;9.808;2023-04-06T18:02:41;11.20;92.00
43227;DHT22;28839;52.404;9.808;2023-04-06T18:09:34;11.00;92.40
43227;DHT22;28839;52.404;9.808;2023-04-06T18:16:28;10.80;93.10
43227;DHT22;28839;52.404;9.808;2023-04-06T18:23:24;10.60;93.50
43227;DHT22;28839;52.404;9.808;2023-04-06T18:30:18;10.40;93.90
43227;DHT22;28839;52.404;9.808;2023-04-06T18:37:12;10.30;94.10
43227;DHT22;28839;52.404;9.808;2023-04-06T18:44:07;10.00;94.50
43227;DHT22;28839;52.404;9.808;2023-04-06T18:51:00;9.90;94.90
43227;DHT22;28839;52.404;9.808;2023-04-06T18:57:55;9.80;94.70
43227;DHT22;28839;52.404;9.808;2023-04-06T19:04:51;9.70;95.00
43227;DHT22;28839;52.404;9.808;2023-04-06T19:11:44;9.50;95.60
43227;DHT22;28839;52.404;9.808;2023-04-06T19:18:38;9.30;96.40
43227;DHT22;28839;52.404;9.808;2023-04-06T19:25:35;9.10;97.40
43227;DHT22;28839;52.404;9.808;2023-04-06T19:32:29;8.90;98.30
43227;DHT22;28839;52.404;9.808;2023-04-06T19:39:23;8.70;99.00
43227;DHT22;28839;52.404;9.808;2023-04-06T19:46:19;8.70;99.70
43227;DHT22;28839;52.404;9.808;2023-04-06T19:53:13;8.50;99.90
43227;DHT22;28839;52.404;9.808;2023-04-06T20:00:08;8.40;99.90
43227;DHT22;28839;52.404;9.808;2023-04-06T20:07:03;8.30;99.90
43227;DHT22;28839;52.404;9.808;2023-04-06T20:13:57;8.20;99.90
43227;DHT22;28839;52.404;9.808;2023-04-06T20:20:51;8.10;99.90
43227;DHT22;28839;52.404;9.808;2023-04-06T20:27:49;8.00;99.90
43227;DHT22;28839;52.404;9.808;2023-04-06T20:34:44;7.90;99.90
43227;DHT22;28839;52.404;9.808;2023-04-06T20:41:38;7.80;99.90
43227;DHT22;28839;52.404;9.808;2023-04-06T20:48:33;7.70;99.90
43227;DHT22;28839;52.404;9.808;2023-04-06T20:55:29;7.60;99.90
43227;DHT22;28839;52.404;9.808;2023-04-06T21:02:23;7.50;99.90
43227;DHT22;28839;52.404;9.808;2023-04-06T21:09:18;7.40;99.90
43227;DHT22;28839;52.404;9.808;2023-04-06T21:16:12;7.30;99.90
43227;DHT22;28839;52.404;9.808;2023-04-06T21:23:07;7.20;99.90
43227;DHT22;28839;52.404;9.808;2023-04-06T21:30:02;7.10;99.90
43227;DHT22;28839;52.404;9.808;2023-04-06T21:36:56;7.00;99.90
43227;DHT22;28839;52.404;9.808;2023-04-06T21:43:50;6.80;99.90
43227;DHT22;28839;52.404;9.808;2023-04-06T21:50:45;6.70;99.90
43227;DHT22;28839;52.404;9.808;2023-04-06T21:57:39;6.70;99.90
43227;DHT22;28839;52.404;9.808;2023-04-06T22:04:34;6.50;99.90
43227;DHT22;28839;52.404;9.808;2023-04-06T22:11:29;6.30;99.90
43227;DHT22;28839;52.404;9.808;2023-04-06T22:18:23;6.30;99.90
43227;DHT22;28839;52.404;9.808;2023-04-06T22:25:17;6.10;99.90
43227;DHT22;28839;52.404;9.808;2023-04-06T22:32:12;6.00;99.90
43227;DHT22;28839;52.404;9.808;2023-04-06T22:39:05;5.90;99.90
43227;DHT22;28839;52.404;9.808;2023-04-06T22:45:59;5.80;99.90
43227;DHT22;28839;52.404;9.808;2023-04-06T22:52:54;5.70;99.90
43227;DHT22;28839;52.404;9.808;2023-04-06T22:59:48;5.70;99.90
43227;DHT22;28839;52.404;9.808;2023-04-06T23:06:42;5.40;99.90
43227;DHT22;28839;52.404;9.808;2023-04-06T23:13:37;5.40;99.90
43227;DHT22;28839;52.404;9.808;2023-04-06T23:20:31;5.40;99.90
43227;DHT22;28839;52.404;9.808;2023-04-06T23:27:24;5.40;99.90
43227;DHT22;28839;52.404;9.808;2023-04-06T23:34:20;5.30;99.90
43227;DHT22;28839;52.404;9.808;2023-04-06T23:41:13;5.20;99.90
43227;DHT22;28839;52.404;9.808;2023-04-06T23:48:07;5.00;99.90
43227;DHT22;28839;52.404;9.808;2023-04-06T23:55:03;5.00;99.90
